Flight Track Log - Related Links

Times and Time Zones

All times are in EDT time to prevent confusion due to time zone crossing. See the N675BP flight status page for this flight to view local times or setup timezone preferences in your user account.

Time Position Orientation Groundspeed Altitude Reporting Facility
EDT Latitude Longitude Course Direction KTS MPH feet Rate Location/Type
Mon 12:20:09 PM 36.1000 -86.6833 219° Southwest 186 214 1,300  Level Nashville TRACON
Mon 12:20:27 PM 36.0833 -86.7000 219° Southwest 199 229 2,100 2,615 Climbing Nashville TRACON
Mon 12:21:27 PM 36.1167 -86.7500 310° West 227 261 4,700 2,474 Climbing Nashville TRACON
Mon 12:22:04 PM 36.1428 -86.7325 28° Northeast 230 265 6,100 2,424 Climbing Memphis Center
Mon 12:23:06 PM 36.2100 -86.6925 26° Northeast 259 298 8,700 2,496 Climbing Memphis Center
Mon 12:24:09 PM 36.2828 -86.6497 25° Northeast 284 327 11,300 2,496 Climbing Memphis Center
Mon 12:25:11 PM 36.3711 -86.6200 15° North 324 373 13,900 1,790 Climbing Memphis Center
Mon 12:26:13 PM 36.4822 -86.5850 14° North 348 400 15,000 581 Climbing Memphis Center
Mon 12:27:15 PM 36.5819 -86.5536 14° North 361 415 15,100  Climbing Memphis Center
Mon 12:28:17 PM 36.6842 -86.5206 15° North 372 428 15,000 -48 Descending Memphis Center
Mon 12:29:19 PM 36.7919 -86.4864 14° North 390 449 15,000  Level Memphis Center
Mon 12:30:21 PM 36.8922 -86.4547 14° North 377 434 15,000 48 Level Memphis Center
Mon 12:31:23 PM 36.9778 -86.3861 33° Northeast 373 429 15,100  Climbing Memphis Center
Mon 12:32:25 PM 37.0661 -86.2819 43° Northeast 369 425 15,000 -97 Descending Memphis Center
Mon 12:33:27 PM 37.1417 -86.1933 43° Northeast 369 425 14,900 -484 Descending Memphis Center
Mon 12:34:29 PM 37.2172 -86.1042 43° Northeast 369 425 14,000 -1,016 Descending Memphis Center
Mon 12:35:31 PM 37.2881 -86.0200 43° Northeast 355 409 12,800 -1,056 Descending Memphis Center
Mon 12:36:34 PM 37.3586 -85.9353 44° Northeast 351 404 11,800 -960 Descending Memphis Center
Mon 12:37:36 PM 37.4283 -85.8506 44° Northeast 349 402 10,800 -844 Descending Memphis Center
Mon 12:38:42 PM 37.5167 -85.7633 38° Northeast 342 394 10,000 -563 Descending Indianapolis Center
Mon 12:39:44 PM 37.5994 -85.7019 30° Northeast 343 395 9,600 -677 Descending Indianapolis Center
Mon 12:40:46 PM 37.6856 -85.6642 19° North 331 381 8,600 -1,016 Descending Indianapolis Center
Mon 12:41:48 PM 37.7642 -85.6497 North 301 346 7,500 -1,016 Descending Indianapolis Center
Mon 12:42:50 PM 37.8431 -85.6331 North 295 339 6,500 -720 Descending Indianapolis Center
Mon 12:43:53 PM 37.9194 -85.6186 North 286 329 6,000 -244 Descending Indianapolis Center
Mon 12:44:53 PM 38.0100 -85.6044 North 279 321 6,000  Level Indianapolis Center
Mon 12:45:55 PM 38.0853 -85.5919 North 278 320 6,000  Level Indianapolis Center
Mon 12:46:57 PM 38.1583 -85.6114 348° North 275 316 6,000 -532 Level Indianapolis Center
Mon 12:47:59 PM 38.2308 -85.6353 345° North 272 313 4,900 -968 Descending Indianapolis Center
Mon 12:49:01 PM 38.2997 -85.6578 346° North 269 310 4,000 -871 Descending Indianapolis Center
Mon 12:50:03 PM 38.3286 -85.7081 306° West 246 283 3,100 -484 Descending Indianapolis Center
Mon 12:51:05 PM 38.2917 -85.7517 223° Southwest 206 237 3,000 -194 Descending Indianapolis Center
Mon 12:52:07 PM 38.2358 -85.7492 178° South 192 221 2,700 -290 Descending Indianapolis Center

Login

Don't have an account? Register now (free) for customized features, flight alerts, and more!